createdAt,value
2022-09-12T00:01:08.730Z,100873.81
2022-09-12T00:03:36.487Z,100868.50
2022-09-12T00:06:09.255Z,100866.22
2022-09-12T00:08:38.364Z,100871.19
2022-09-12T00:11:07.357Z,100866.00
2022-09-12T00:13:38.394Z,100870.97
2022-09-12T00:16:08.991Z,100873.78
2022-09-12T00:18:36.471Z,100879.53
2022-09-12T00:21:05.607Z,100870.06
2022-09-12T00:23:34.025Z,100869.25
2022-09-12T00:26:05.924Z,100871.34
2022-09-12T00:28:34.933Z,100868.19
2022-09-12T00:31:05.200Z,100861.13
2022-09-12T00:33:32.760Z,100868.56
2022-09-12T00:36:00.271Z,100865.09
2022-09-12T00:38:27.725Z,100860.13
2022-09-12T00:40:55.220Z,100867.13
2022-09-12T00:43:42.445Z,100859.94
2022-09-12T00:46:17.706Z,100864.31
2022-09-12T00:48:48.500Z,100862.25
2022-09-12T00:51:16.943Z,100853.59
2022-09-12T00:53:45.544Z,100848.63
2022-09-12T00:56:14.533Z,100840.88
2022-09-12T00:58:45.914Z,100840.97
2022-09-12T01:01:13.490Z,100841.59
2022-09-12T01:03:41.644Z,100840.56
2022-09-12T01:06:14.951Z,100839.13
2022-09-12T01:08:44.309Z,100841.09
2022-09-12T01:11:13.494Z,100843.94
2022-09-12T01:13:42.624Z,100838.31
2022-09-12T01:16:10.164Z,100841.94
2022-09-12T01:18:46.067Z,100836.25
2022-09-12T01:21:21.445Z,100835.78
2022-09-12T01:24:13.524Z,100833.22
2022-09-12T01:27:04.933Z,100840.47
2022-09-12T01:30:07.176Z,100836.47
2022-09-12T01:32:46.717Z,100835.97
2022-09-12T01:35:22.883Z,100834.22
2022-09-12T01:37:55.479Z,100828.72
2022-09-12T01:40:25.814Z,100822.38
2022-09-12T01:42:58.875Z,100824.41
2022-09-12T01:45:30.345Z,100824.84
2022-09-12T01:48:02.240Z,100827.16
2022-09-12T01:50:33.325Z,100828.25
2022-09-12T01:53:02.790Z,100823.09
2022-09-12T01:55:33.068Z,100825.84
2022-09-12T01:58:05.479Z,100815.41
2022-09-12T02:00:35.678Z,100811.28
2022-09-12T02:03:10.347Z,100815.84
2022-09-12T02:05:40.746Z,100815.66
2022-09-12T02:08:10.663Z,100802.72
2022-09-12T02:10:43.250Z,100801.72
2022-09-12T02:13:13.709Z,100809.75
2022-09-12T02:15:44.299Z,100807.09
2022-09-12T02:18:15.393Z,100811.00
2022-09-12T02:20:48.476Z,100809.16
2022-09-12T02:23:19.278Z,100809.97
2022-09-12T02:25:47.906Z,100810.00
2022-09-12T02:28:17.950Z,100816.66
2022-09-12T02:30:50.445Z,100818.91
2022-09-12T02:33:26.594Z,100810.75
2022-09-12T02:35:55.463Z,100808.97
2022-09-12T02:38:26.959Z,100806.94
2022-09-12T02:40:54.898Z,100807.13
2022-09-12T02:43:22.509Z,100811.03
2022-09-12T02:45:50.133Z,100808.25
2022-09-12T02:48:22.312Z,100808.63
2022-09-12T02:50:49.817Z,100812.19
2022-09-12T02:53:17.326Z,100804.69
2022-09-12T02:55:45.040Z,100808.66
2022-09-12T02:58:14.617Z,100806.56
2022-09-12T03:00:46.621Z,100800.72
2022-09-12T03:03:42.684Z,100795.66
2022-09-12T03:06:15.692Z,100801.06
2022-09-12T03:09:01.839Z,100803.81
2022-09-12T03:11:47.601Z,100800.56
2022-09-12T03:14:23.592Z,100807.84
2022-09-12T03:16:58.129Z,100809.09
2022-09-12T03:19:38.605Z,100814.84
2022-09-12T03:22:13.061Z,100813.72
2022-09-12T03:24:46.297Z,100811.09
2022-09-12T03:27:17.275Z,100810.97
2022-09-12T03:29:45.832Z,100805.78
2022-09-12T03:32:13.240Z,100809.41
2022-09-12T03:34:42.192Z,100805.09
2022-09-12T03:37:09.674Z,100801.59
2022-09-12T03:39:37.336Z,100803.50
2022-09-12T03:42:05.072Z,100804.75
2022-09-12T03:44:32.561Z,100805.19
2022-09-12T03:47:00.142Z,100809.22
2022-09-12T03:49:27.596Z,100805.47
2022-09-12T03:51:56.370Z,100797.56
2022-09-12T03:54:24.097Z,100802.81
2022-09-12T03:56:51.546Z,100802.94
2022-09-12T03:59:19.018Z,100804.81
2022-09-12T04:01:46.434Z,100806.84
2022-09-12T04:04:13.868Z,100806.91
2022-09-12T04:06:42.070Z,100794.66
2022-09-12T04:09:10.848Z,100803.19
2022-09-12T04:11:38.404Z,100807.69
2022-09-12T04:14:05.920Z,100808.59
2022-09-12T04:16:33.452Z,100803.53
2022-09-12T04:19:00.989Z,100800.38
2022-09-12T04:21:28.509Z,100806.09
2022-09-12T04:23:55.933Z,100807.50
2022-09-12T04:26:24.797Z,100802.56
2022-09-12T04:28:54.806Z,100810.06
2022-09-12T04:31:23.452Z,100801.56
2022-09-12T04:33:54.723Z,100797.47
2022-09-12T04:36:22.823Z,100803.88
2022-09-12T04:38:51.092Z,100810.22
2022-09-12T04:41:21.235Z,100806.09
2022-09-12T04:43:53.126Z,100797.00
2022-09-12T04:46:21.157Z,100798.88
2022-09-12T04:48:51.278Z,100798.63
2022-09-12T04:51:23.216Z,100804.72
2022-09-12T04:53:52.920Z,100804.63
2022-09-12T04:56:21.833Z,100802.28
2022-09-12T04:58:50.739Z,100802.75
2022-09-12T05:01:19.678Z,100797.81
2022-09-12T05:03:48.233Z,100801.53
2022-09-12T05:06:18.593Z,100808.72
2022-09-12T05:08:46.273Z,100805.66
2022-09-12T05:11:16.669Z,100804.81
2022-09-12T05:13:44.542Z,100801.50
2022-09-12T05:16:15.234Z,100801.50
2022-09-12T05:18:44.312Z,100811.56
2022-09-12T05:21:13.617Z,100806.19
2022-09-12T05:23:41.052Z,100811.09
2022-09-12T05:26:09.275Z,100808.22
2022-09-12T05:28:38.232Z,100818.09
2022-09-12T05:31:07.841Z,100813.38
2022-09-12T05:33:37.935Z,100818.91
2022-09-12T05:36:07.685Z,100812.97
2022-09-12T05:38:35.986Z,100818.09
2022-09-12T05:41:06.155Z,100820.56
2022-09-12T05:43:34.139Z,100812.97
2022-09-12T05:46:02.841Z,100820.41
2022-09-12T05:48:30.466Z,100819.59
2022-09-12T05:51:04.034Z,100822.94
2022-09-12T05:53:32.315Z,100830.53
2022-09-12T05:56:04.954Z,100820.06
2022-09-12T05:58:32.627Z,100818.78
2022-09-12T06:01:03.902Z,100826.03
2022-09-12T06:03:31.492Z,100823.34
2022-09-12T06:06:02.626Z,100827.91
2022-09-12T06:08:31.901Z,100823.41
2022-09-12T06:11:02.366Z,100820.94
2022-09-12T06:13:32.052Z,100820.13
2022-09-12T06:16:04.446Z,100824.28
2022-09-12T06:18:32.256Z,100825.13
2022-09-12T06:21:03.912Z,100828.41
2022-09-12T06:23:33.665Z,100833.16
2022-09-12T06:26:01.970Z,100825.16
2022-09-12T06:28:29.831Z,100828.69
2022-09-12T06:31:04.535Z,100819.00
2022-09-12T06:33:33.015Z,100827.69
2022-09-12T06:36:10.147Z,100826.88
2022-09-12T06:38:41.434Z,100815.72
2022-09-12T06:41:10.639Z,100823.59
2022-09-12T06:43:38.555Z,100819.94
2022-09-12T06:46:07.584Z,100812.53
2022-09-12T06:48:38.407Z,100810.03
2022-09-12T06:51:13.382Z,100810.06
2022-09-12T06:53:43.020Z,100808.41
2022-09-12T06:56:12.026Z,100814.19
2022-09-12T06:58:39.952Z,100805.94
2022-09-12T07:01:09.451Z,100805.31
2022-09-12T07:03:38.000Z,100797.91
2022-09-12T07:06:06.905Z,100802.22
2022-09-12T07:08:34.553Z,100794.81
2022-09-12T07:11:10.055Z,100800.78
2022-09-12T07:13:37.571Z,100804.69
2022-09-12T07:16:05.662Z,100802.63
2022-09-12T07:18:33.360Z,100809.44
2022-09-12T07:21:01.649Z,100807.13
2022-09-12T07:23:29.763Z,100806.09
2022-09-12T07:25:58.214Z,100810.63
2022-09-12T07:28:28.963Z,100808.94
2022-09-12T07:30:56.522Z,100805.06
2022-09-12T07:33:26.588Z,100804.03
2022-09-12T07:35:54.364Z,100806.88
2022-09-12T07:38:21.846Z,100799.25
2022-09-12T07:40:49.405Z,100808.31
2022-09-12T07:43:16.845Z,100810.31
2022-09-12T07:45:45.661Z,100807.19
2022-09-12T07:48:13.767Z,100809.66
2022-09-12T07:50:45.063Z,100798.06
2022-09-12T07:53:12.873Z,100791.41
2022-09-12T07:55:40.402Z,100795.28
2022-09-12T07:58:07.924Z,100789.47
2022-09-12T08:00:37.789Z,100791.75
2022-09-12T08:03:07.226Z,100793.16
2022-09-12T08:05:34.972Z,100794.34
2022-09-12T08:08:02.586Z,100794.53
2022-09-12T08:10:30.046Z,100791.09
2022-09-12T08:12:58.742Z,100797.50
2022-09-12T08:15:26.351Z,100802.66
2022-09-12T08:17:53.789Z,100807.25
2022-09-12T08:20:25.353Z,100800.91
2022-09-12T08:22:55.662Z,100801.84
2022-09-12T08:25:23.354Z,100802.66
2022-09-12T08:27:50.834Z,100800.66
2022-09-12T08:30:18.793Z,100787.31
2022-09-12T08:32:46.233Z,100793.72
2022-09-12T08:35:15.017Z,100795.13
2022-09-12T08:37:43.795Z,100801.41
2022-09-12T08:40:18.856Z,100798.88
2022-09-12T08:42:54.462Z,100795.91
2022-09-12T08:45:24.340Z,100800.91
2022-09-12T08:47:52.159Z,100801.91
2022-09-12T08:50:21.816Z,100802.41
2022-09-12T08:52:58.398Z,100804.31
2022-09-12T08:55:31.056Z,100791.75
2022-09-12T08:58:00.060Z,100801.59
2022-09-12T09:00:33.769Z,100801.44
2022-09-12T09:03:33.238Z,100793.63
2022-09-12T09:06:06.809Z,100794.34
2022-09-12T09:08:47.784Z,100793.19
2022-09-12T09:11:38.953Z,100796.22
2022-09-12T09:14:37.913Z,100798.50
2022-09-12T09:17:10.177Z,100797.47
2022-09-12T09:19:39.621Z,100796.78
2022-09-12T09:22:11.955Z,100792.34
2022-09-12T09:24:44.154Z,100786.72
2022-09-12T09:27:37.063Z,100788.47
2022-09-12T09:30:05.379Z,100795.03
2022-09-12T09:32:35.670Z,100782.72
2022-09-12T09:35:03.843Z,100785.53
2022-09-12T09:37:37.375Z,100780.84
2022-09-12T09:40:16.274Z,100776.47
2022-09-12T09:42:46.821Z,100775.09
2022-09-12T09:45:16.818Z,100775.91
2022-09-12T09:47:46.362Z,100779.63
2022-09-12T09:50:16.793Z,100767.75
2022-09-12T09:52:44.813Z,100765.38
2022-09-12T09:55:18.073Z,100762.34
2022-09-12T09:57:47.598Z,100766.09
2022-09-12T10:00:24.045Z,100763.63
2022-09-12T10:03:04.663Z,100763.22
2022-09-12T10:05:34.221Z,100762.38
2022-09-12T10:08:01.681Z,100767.31
2022-09-12T10:10:30.936Z,100759.03
2022-09-12T10:13:10.023Z,100759.56
2022-09-12T10:15:38.360Z,100758.72
2022-09-12T10:18:05.973Z,100758.06
2022-09-12T10:20:36.270Z,100761.00
2022-09-12T10:23:29.386Z,100747.09
2022-09-12T10:26:00.746Z,100745.63
2022-09-12T10:28:33.392Z,100738.75
2022-09-12T10:31:02.772Z,100740.44
2022-09-12T10:33:31.577Z,100731.84
2022-09-12T10:35:59.066Z,100727.09
2022-09-12T10:38:28.239Z,100727.06
2022-09-12T10:40:59.191Z,100724.44
2022-09-12T10:43:31.917Z,100723.56
2022-09-12T10:46:00.994Z,100726.81
2022-09-12T10:48:31.564Z,100711.44
2022-09-12T10:50:59.709Z,100714.31
2022-09-12T10:53:34.643Z,100711.16
2022-09-12T10:56:08.957Z,100713.06
2022-09-12T10:58:54.055Z,100712.03
2022-09-12T11:01:32.881Z,100702.84
2022-09-12T11:04:23.199Z,100711.97
2022-09-12T11:06:59.704Z,100702.06
2022-09-12T11:09:32.379Z,100706.78
2022-09-12T11:12:06.033Z,100704.00
2022-09-12T11:14:57.481Z,100694.63
2022-09-12T11:17:34.528Z,100696.47
2022-09-12T11:20:28.968Z,100699.38
2022-09-12T11:23:18.322Z,100701.69
2022-09-12T11:25:49.208Z,100697.50
2022-09-12T11:28:26.783Z,100690.63
2022-09-12T11:31:07.840Z,100691.22
2022-09-12T11:33:43.371Z,100683.22
2022-09-12T11:36:18.587Z,100681.63
2022-09-12T11:38:53.183Z,100672.06
2022-09-12T11:41:24.841Z,100674.59
2022-09-12T11:43:56.522Z,100669.53
2022-09-12T11:46:29.080Z,100671.25
2022-09-12T11:48:59.084Z,100667.22
2022-09-12T11:51:28.811Z,100669.34
2022-09-12T11:54:02.460Z,100650.94
2022-09-12T11:56:30.024Z,100663.16
2022-09-12T11:59:04.256Z,100649.59
2022-09-12T12:01:41.999Z,100657.22
2022-09-12T12:04:13.183Z,100653.44
2022-09-12T12:06:50.028Z,100660.84
2022-09-12T12:09:17.753Z,100661.94
2022-09-12T12:11:49.075Z,100657.06
2022-09-12T12:14:20.037Z,100649.97
2022-09-12T12:16:47.785Z,100642.69
2022-09-12T12:19:32.637Z,100645.97
2022-09-12T12:22:07.650Z,100638.84
2022-09-12T12:24:35.333Z,100642.63
2022-09-12T12:27:04.282Z,100635.03
2022-09-12T12:29:43.913Z,100633.50
2022-09-12T12:32:26.041Z,100629.69
2022-09-12T12:35:03.601Z,100633.47
2022-09-12T12:37:54.053Z,100632.94
2022-09-12T12:40:27.844Z,100616.66
2022-09-12T12:43:00.762Z,100618.88
2022-09-12T12:46:01.635Z,100614.50
2022-09-12T12:48:35.254Z,100612.38
2022-09-12T12:51:27.671Z,100602.66
2022-09-12T12:53:55.610Z,100599.66
2022-09-12T12:56:30.725Z,100589.09
2022-09-12T12:58:59.932Z,100589.06
2022-09-12T13:01:28.120Z,100585.81
2022-09-12T13:04:00.919Z,100581.97
2022-09-12T13:06:35.477Z,100580.91
2022-09-12T13:09:05.373Z,100583.66
2022-09-12T13:11:35.051Z,100565.41
2022-09-12T13:14:04.446Z,100569.22
2022-09-12T13:16:34.152Z,100569.50
2022-09-12T13:19:07.910Z,100552.41
2022-09-12T13:21:35.460Z,100565.72
2022-09-12T13:24:04.972Z,100561.91
2022-09-12T13:26:41.468Z,100555.91
2022-09-12T13:29:13.747Z,100548.31
2022-09-12T13:31:46.662Z,100542.31
2022-09-12T13:34:19.476Z,100547.75
2022-09-12T13:37:09.871Z,100542.34
2022-09-12T13:39:46.654Z,100552.94
2022-09-12T13:42:40.937Z,100548.84
2022-09-12T13:45:15.148Z,100539.06
2022-09-12T13:47:44.340Z,100540.97
2022-09-12T13:50:19.340Z,100530.91
2022-09-12T13:52:48.998Z,100526.28
2022-09-12T13:55:31.263Z,100527.63
2022-09-12T13:58:01.173Z,100528.69
2022-09-12T14:00:30.259Z,100528.13
2022-09-12T14:03:11.741Z,100526.22
2022-09-12T14:05:44.102Z,100526.72
2022-09-12T14:08:14.345Z,100518.84
2022-09-12T14:10:44.014Z,100520.75
2022-09-12T14:13:14.130Z,100514.72
2022-09-12T14:15:45.288Z,100514.97
2022-09-12T14:18:23.484Z,100510.94
2022-09-12T14:20:54.076Z,100509.59
2022-09-12T14:23:27.389Z,100501.97
2022-09-12T14:25:56.258Z,100508.53
2022-09-12T14:28:24.333Z,100502.78
2022-09-12T14:31:08.093Z,100500.34
2022-09-12T14:33:48.363Z,100498.72
2022-09-12T14:36:24.525Z,100499.00
2022-09-12T14:38:55.098Z,100496.06
2022-09-12T14:41:25.714Z,100489.00
2022-09-12T14:43:55.369Z,100494.69
2022-09-12T14:46:26.309Z,100496.63
2022-09-12T14:48:55.481Z,100484.94
2022-09-12T14:51:27.559Z,100482.47
2022-09-12T14:53:55.309Z,100482.50
2022-09-12T14:56:24.046Z,100483.31
2022-09-12T14:58:51.672Z,100471.59
2022-09-12T15:01:26.758Z,100466.41
2022-09-12T15:03:56.536Z,100463.72
2022-09-12T15:06:29.455Z,100461.56
2022-09-12T15:08:58.968Z,100459.34
2022-09-12T15:11:26.594Z,100455.00
2022-09-12T15:13:54.364Z,100447.13
2022-09-12T15:16:22.146Z,100458.28
2022-09-12T15:18:49.881Z,100445.50
2022-09-12T15:21:18.778Z,100450.38
2022-09-12T15:23:49.084Z,100451.78
2022-09-12T15:26:17.975Z,100449.84
2022-09-12T15:28:45.519Z,100447.66
2022-09-12T15:31:16.882Z,100441.41
2022-09-12T15:33:44.453Z,100442.72
2022-09-12T15:36:18.889Z,100439.75
2022-09-12T15:38:48.240Z,100437.28
2022-09-12T15:41:17.865Z,100437.31
2022-09-12T15:43:45.420Z,100431.03
2022-09-12T15:46:13.678Z,100424.25
2022-09-12T15:48:41.418Z,100432.44
2022-09-12T15:51:15.410Z,100422.66
2022-09-12T15:53:43.283Z,100424.25
2022-09-12T15:56:12.177Z,100422.91
2022-09-12T15:58:54.638Z,100422.66
2022-09-12T16:01:25.145Z,100429.19
2022-09-12T16:03:52.614Z,100428.09
2022-09-12T16:06:20.112Z,100424.53
2022-09-12T16:08:47.734Z,100425.63
2022-09-12T16:11:20.663Z,100416.94
2022-09-12T16:13:48.145Z,100423.72
2022-09-12T16:16:15.677Z,100413.09
2022-09-12T16:18:43.459Z,100413.41
2022-09-12T16:21:14.826Z,100412.63
2022-09-12T16:23:43.274Z,100407.44
2022-09-12T16:26:10.753Z,100397.13
2022-09-12T16:28:39.652Z,100396.56
2022-09-12T16:31:09.101Z,100401.22
2022-09-12T16:33:38.504Z,100399.03
2022-09-12T16:36:07.627Z,100402.31
2022-09-12T16:38:35.795Z,100404.75
2022-09-12T16:41:04.170Z,100401.78
2022-09-12T16:43:32.223Z,100404.50
2022-09-12T16:46:05.474Z,100398.47
2022-09-12T16:48:33.564Z,100394.69
2022-09-12T16:51:02.443Z,100388.69
2022-09-12T16:53:31.195Z,100387.63
2022-09-12T16:55:58.687Z,100388.69
2022-09-12T16:58:26.740Z,100390.31
2022-09-12T17:01:00.801Z,100386.25
2022-09-12T17:03:29.631Z,100392.22
2022-09-12T17:06:01.141Z,100391.13
2022-09-12T17:08:28.663Z,100393.28
2022-09-12T17:11:01.202Z,100410.13
2022-09-12T17:13:46.567Z,100398.97
2022-09-12T17:16:16.955Z,100396.47
2022-09-12T17:18:46.691Z,100403.50
2022-09-12T17:21:14.482Z,100398.59
2022-09-12T17:23:42.533Z,100401.81
2022-09-12T17:26:10.854Z,100395.25
2022-09-12T17:28:38.941Z,100393.88
2022-09-12T17:31:08.335Z,100394.31
2022-09-12T17:33:36.064Z,100398.38
2022-09-12T17:36:06.416Z,100394.53
2022-09-12T17:38:37.211Z,100391.94
2022-09-12T17:41:09.382Z,100398.66
2022-09-12T17:43:38.038Z,100399.44
2022-09-12T17:46:06.093Z,100399.13
2022-09-12T17:48:34.030Z,100393.38
2022-09-12T17:51:09.084Z,100383.25
2022-09-12T17:53:36.777Z,100389.13
2022-09-12T17:56:05.355Z,100387.09
2022-09-12T17:58:32.882Z,100404.78
2022-09-12T18:01:29.730Z,100400.03
2022-09-12T18:04:00.450Z,100398.25
2022-09-12T18:06:29.635Z,100390.63
2022-09-12T18:08:59.882Z,100399.25
2022-09-12T18:11:27.381Z,100402.38
2022-09-12T18:13:54.794Z,100400.66
2022-09-12T18:16:22.401Z,100395.59
2022-09-12T18:18:50.966Z,100403.59
2022-09-12T18:21:19.726Z,100410.78
2022-09-12T18:23:48.643Z,100402.78
2022-09-12T18:26:16.265Z,100400.34
2022-09-12T18:28:45.062Z,100406.25
2022-09-12T18:31:14.664Z,100399.88
2022-09-12T18:33:42.671Z,100405.13
2022-09-12T18:36:12.201Z,100403.38
2022-09-12T18:38:40.083Z,100402.44
2022-09-12T18:41:10.979Z,100403.34
2022-09-12T18:43:38.435Z,100400.28
2022-09-12T18:46:06.911Z,100392.19
2022-09-12T18:48:34.860Z,100393.66
2022-09-12T18:51:05.648Z,100390.22
2022-09-12T18:53:33.665Z,100391.72
2022-09-12T18:56:03.212Z,100397.63
2022-09-12T18:58:32.248Z,100406.53
2022-09-12T19:01:00.582Z,100406.88
2022-09-12T19:03:28.356Z,100403.09
2022-09-12T19:05:58.637Z,100404.31
2022-09-12T19:08:28.783Z,100403.56
2022-09-12T19:10:56.878Z,100404.75
2022-09-12T19:13:24.596Z,100408.38
2022-09-12T19:15:53.566Z,100414.50
2022-09-12T19:18:21.932Z,100408.66
2022-09-12T19:20:51.662Z,100417.69
2022-09-12T19:23:22.670Z,100409.97
2022-09-12T19:25:57.000Z,100410.56
2022-09-12T19:28:24.784Z,100416.53
2022-09-12T19:30:54.555Z,100403.06
2022-09-12T19:33:22.530Z,100407.75
2022-09-12T19:35:50.481Z,100411.53
2022-09-12T19:38:19.416Z,100411.53
2022-09-12T19:40:56.715Z,100404.38
2022-09-12T19:43:24.388Z,100410.75
2022-09-12T19:45:55.507Z,100407.47
2022-09-12T19:48:23.183Z,100404.41
2022-09-12T19:50:51.340Z,100408.75
2022-09-12T19:53:19.455Z,100403.59
2022-09-12T19:55:47.168Z,100400.78
2022-09-12T19:58:15.011Z,100397.84
2022-09-12T20:00:42.553Z,100404.16
2022-09-12T20:03:11.419Z,100386.25
2022-09-12T20:05:42.603Z,100379.69
2022-09-12T20:08:10.898Z,100376.41
2022-09-12T20:10:38.476Z,100363.53
2022-09-12T20:13:06.887Z,100367.72
2022-09-12T20:15:34.491Z,100350.19
2022-09-12T20:18:02.037Z,100351.91
2022-09-12T20:20:31.684Z,100349.13
2022-09-12T20:22:59.239Z,100337.41
2022-09-12T20:25:26.774Z,100352.72
2022-09-12T20:27:59.435Z,100352.47
2022-09-12T20:30:27.737Z,100356.19
2022-09-12T20:32:55.428Z,100353.84
2022-09-12T20:35:23.745Z,100359.66
2022-09-12T20:37:52.738Z,100356.06
2022-09-12T20:40:20.315Z,100356.41
2022-09-12T20:42:47.770Z,100347.88
2022-09-12T20:45:15.306Z,100346.84
2022-09-12T20:47:42.735Z,100345.91
2022-09-12T20:50:10.712Z,100335.50
2022-09-12T20:52:38.182Z,100326.44
2022-09-12T20:55:07.870Z,100330.72
2022-09-12T20:57:35.284Z,100327.81
2022-09-12T21:00:03.119Z,100326.34
2022-09-12T21:02:30.680Z,100327.13
2022-09-12T21:04:58.180Z,100327.69
2022-09-12T21:07:25.589Z,100327.69
2022-09-12T21:09:54.193Z,100316.84
2022-09-12T21:12:23.330Z,100328.25
2022-09-12T21:14:50.898Z,100323.06
2022-09-12T21:17:18.325Z,100326.94
2022-09-12T21:19:45.761Z,100335.16
2022-09-12T21:22:13.172Z,100329.84
2022-09-12T21:24:40.596Z,100324.91
2022-09-12T21:27:08.013Z,100328.13
2022-09-12T21:29:36.794Z,100325.66
2022-09-12T21:32:05.801Z,100330.97
2022-09-12T21:34:33.336Z,100332.81
2022-09-12T21:37:01.034Z,100330.78
2022-09-12T21:39:28.546Z,100320.72
2022-09-12T21:41:56.018Z,100334.25
2022-09-12T21:44:23.803Z,100334.47
2022-09-12T21:46:52.826Z,100330.97
2022-09-12T21:49:20.496Z,100336.41
2022-09-12T21:51:48.047Z,100333.47
2022-09-12T21:54:15.909Z,100342.97
2022-09-12T21:56:43.570Z,100334.38
2022-09-12T21:59:11.843Z,100335.22
2022-09-12T22:01:39.390Z,100323.13
2022-09-12T22:04:09.894Z,100319.56
2022-09-12T22:06:37.834Z,100325.38
2022-09-12T22:09:07.187Z,100319.09
2022-09-12T22:11:34.738Z,100319.16
2022-09-12T22:14:02.195Z,100322.69
2022-09-12T22:16:30.379Z,100324.91
2022-09-12T22:18:58.260Z,100325.44
2022-09-12T22:21:27.175Z,100321.50
2022-09-12T22:24:12.271Z,100322.03
2022-09-12T22:26:44.098Z,100308.81
2022-09-12T22:29:13.206Z,100313.34
2022-09-12T22:31:40.802Z,100308.81
2022-09-12T22:34:08.319Z,100307.13
2022-09-12T22:36:39.135Z,100304.22
2022-09-12T22:39:07.008Z,100296.59
2022-09-12T22:41:34.485Z,100294.97
2022-09-12T22:44:01.952Z,100302.53
2022-09-12T22:46:29.948Z,100293.88
2022-09-12T22:48:57.443Z,100303.75
2022-09-12T22:51:24.948Z,100298.50
2022-09-12T22:53:53.995Z,100294.84
2022-09-12T22:56:21.782Z,100301.41
2022-09-12T22:58:49.292Z,100301.31
2022-09-12T23:01:17.077Z,100295.28
2022-09-12T23:03:44.654Z,100293.41
2022-09-12T23:06:12.321Z,100285.81
2022-09-12T23:08:40.240Z,100286.66
2022-09-12T23:11:10.841Z,100290.44
2022-09-12T23:13:38.665Z,100297.84
2022-09-12T23:16:08.464Z,100300.19
2022-09-12T23:18:37.105Z,100297.41
2022-09-12T23:21:06.118Z,100294.88
2022-09-12T23:23:33.845Z,100291.13
2022-09-12T23:26:06.122Z,100295.34
2022-09-12T23:28:35.433Z,100289.25
2022-09-12T23:31:03.190Z,100278.75
2022-09-12T23:33:31.803Z,100280.84
2022-09-12T23:36:00.201Z,100282.50
2022-09-12T23:38:27.776Z,100285.19
2022-09-12T23:40:55.225Z,100285.63
2022-09-12T23:43:22.650Z,100300.09
2022-09-12T23:45:51.548Z,100305.50
2022-09-12T23:48:19.060Z,100304.75
2022-09-12T23:50:46.966Z,100305.97
2022-09-12T23:53:15.103Z,100302.78
2022-09-12T23:55:43.244Z,100300.25
2022-09-12T23:58:10.675Z,100289.31
